Time;durP1;ratioP1;P1;durP2;ratioP2;P2;SDS_P1;SDS_P2;PMS_P1;PMS_P2;Temp;Humidity;BMP_temperature;BMP_pressure;BME280_temperature;BME280_humidity;BME280_pressure;Samples;Min_cycle;Max_cycle;Signal;HPM_P1;HPM_P2
2021/11/10 00:02:00;;;;;;;1999.90;999.90;;;6.00;99.90;;;;;;5054165;28;20168;-71
2021/11/10 00:04:25;;;;;;;1999.90;999.90;;;5.90;99.90;;;;;;5054685;28;20160;-71
2021/11/10 00:06:52;;;;;;;1999.90;999.90;;;5.90;99.90;;;;;;5054434;28;20549;-72
2021/11/10 00:09:18;;;;;;;1999.90;999.90;;;5.80;99.90;;;;;;5054869;28;20183;-71
2021/11/10 00:11:44;;;;;;;1999.90;999.90;;;5.80;99.90;;;;;;5054557;28;20399;-72
2021/11/10 00:14:09;;;;;;;1999.90;999.90;;;5.80;99.90;;;;;;5053789;28;20227;-71
2021/11/10 00:16:35;;;;;;;1999.90;999.90;;;5.70;99.90;;;;;;5053730;28;20282;-71
2021/11/10 00:19:01;;;;;;;1999.90;999.90;;;5.60;99.90;;;;;;5053813;28;20172;-71
2021/11/10 00:21:28;;;;;;;1999.90;999.90;;;5.60;99.90;;;;;;5053589;28;20779;-71
2021/11/10 00:23:54;;;;;;;1999.90;999.90;;;5.60;99.90;;;;;;5053699;28;20553;-71
2021/11/10 00:26:20;;;;;;;1999.90;999.90;;;5.50;99.90;;;;;;5053452;28;20842;-71
2021/11/10 00:28:47;;;;;;;1999.90;999.90;;;5.50;99.90;;;;;;5053436;28;20448;-71
2021/11/10 00:31:13;;;;;;;1999.90;999.90;;;5.40;99.90;;;;;;5053094;28;20752;-71
2021/11/10 00:33:38;;;;;;;1999.90;999.90;;;5.40;99.90;;;;;;5053182;28;20456;-71
2021/11/10 00:36:05;;;;;;;1999.90;999.90;;;5.30;99.90;;;;;;5053100;28;20449;-71
2021/11/10 00:38:31;;;;;;;1999.90;999.90;;;5.30;99.90;;;;;;5052955;28;20176;-71
2021/11/10 00:40:57;;;;;;;1999.90;999.90;;;5.20;99.90;;;;;;5052746;28;20414;-71
2021/11/10 00:43:23;;;;;;;1999.90;999.90;;;5.10;99.90;;;;;;5052811;28;20644;-71
2021/11/10 00:45:50;;;;;;;1999.90;999.90;;;5.00;99.90;;;;;;5052626;28;20922;-71
2021/11/10 00:48:16;;;;;;;1999.90;999.90;;;5.00;99.90;;;;;;5052879;28;20547;-71
2021/11/10 00:50:41;;;;;;;1999.90;999.90;;;5.00;99.90;;;;;;5052735;28;20440;-71
2021/11/10 00:53:07;;;;;;;1999.90;999.90;;;5.10;99.90;;;;;;5052421;28;20176;-71
2021/11/10 00:55:34;;;;;;;1999.90;999.90;;;5.10;99.90;;;;;;5052428;28;20783;-71
2021/11/10 00:58:00;;;;;;;1999.90;999.90;;;5.10;99.90;;;;;;5053278;28;20191;-71
2021/11/10 01:00:25;;;;;;;1999.90;999.90;;;5.10;99.90;;;;;;5053516;28;20406;-71
2021/11/10 01:02:51;;;;;;;1999.90;999.90;;;5.10;99.90;;;;;;5052822;28;20163;-71
2021/11/10 01:05:17;;;;;;;1999.90;999.90;;;5.20;99.90;;;;;;5052938;28;20229;-71
2021/11/10 01:07:43;;;;;;;1999.90;999.90;;;5.20;99.90;;;;;;5052146;28;20274;-71
2021/11/10 01:10:10;;;;;;;1999.90;999.90;;;5.20;99.90;;;;;;5052565;28;20489;-71
2021/11/10 01:12:36;;;;;;;1999.90;999.90;;;5.30;99.90;;;;;;5052014;28;20429;-71
2021/11/10 01:15:03;;;;;;;1999.90;999.90;;;5.20;99.90;;;;;;5052328;28;20446;-71
2021/11/10 01:17:29;;;;;;;1999.90;999.90;;;5.20;99.90;;;;;;5052456;28;20512;-71
2021/11/10 01:19:55;;;;;;;1999.90;999.90;;;5.20;99.90;;;;;;5052341;28;20939;-71
2021/11/10 01:22:21;;;;;;;1999.90;999.90;;;5.10;99.90;;;;;;5052128;28;20179;-71
2021/11/10 01:24:46;;;;;;;1999.90;999.90;;;5.10;99.90;;;;;;5051813;28;20206;-71
2021/11/10 01:27:12;;;;;;;1999.90;999.90;;;5.10;99.90;;;;;;5051680;28;20203;-71
2021/11/10 01:29:38;;;;;;;1999.90;999.90;;;5.00;99.90;;;;;;5052137;28;20406;-71
2021/11/10 01:32:04;;;;;;;1999.90;999.90;;;5.00;99.90;;;;;;5051789;28;20405;-70
2021/11/10 01:34:30;;;;;;;1999.90;999.90;;;5.00;99.90;;;;;;5051858;28;20210;-71
2021/11/10 01:36:56;;;;;;;1999.90;999.90;;;4.90;99.90;;;;;;5051667;28;20462;-71
2021/11/10 01:39:22;;;;;;;1999.90;999.90;;;4.90;99.90;;;;;;5052098;28;20257;-71
2021/11/10 01:41:52;;;;;;;1999.90;999.90;;;4.90;99.90;;;;;;5052232;28;20159;-71
2021/11/10 01:44:26;;;;;;;1999.90;999.90;;;4.90;99.90;;;;;;5052477;28;20399;-71
2021/11/10 01:46:55;;;;;;;1999.90;999.90;;;4.90;99.90;;;;;;5052495;28;20495;-71
2021/11/10 01:49:20;;;;;;;1999.90;999.90;;;4.80;99.90;;;;;;5052371;28;20403;-71
2021/11/10 01:51:51;;;;;;;1999.90;999.90;;;4.70;99.90;;;;;;5051855;28;20537;-71
2021/11/10 01:54:21;;;;;;;1999.90;999.90;;;4.60;99.90;;;;;;5052242;28;20159;-71
2021/11/10 01:56:48;;;;;;;1999.90;999.90;;;4.50;99.90;;;;;;5052160;28;20536;-71
2021/11/10 01:59:36;;;;;;;1999.90;999.90;;;4.50;99.90;;;;;;5051963;28;20398;-71
2021/11/10 02:02:04;;;;;;;1999.90;999.90;;;4.50;99.90;;;;;;5051924;28;20656;-71
2021/11/10 02:04:31;;;;;;;1999.90;999.90;;;4.40;99.90;;;;;;5051853;28;20409;-71
2021/11/10 02:06:59;;;;;;;1999.90;999.90;;;4.30;99.90;;;;;;5051626;28;20443;-71
2021/11/10 02:09:25;;;;;;;1999.90;999.90;;;4.20;99.90;;;;;;5051652;28;20416;-71
2021/11/10 02:11:53;;;;;;;1999.90;999.90;;;4.20;99.90;;;;;;5051539;28;20937;-71
2021/11/10 02:14:24;;;;;;;1999.90;999.90;;;4.20;99.90;;;;;;5051555;28;20406;-71
2021/11/10 02:16:52;;;;;;;1999.90;999.90;;;4.20;99.90;;;;;;5051320;28;20876;-71
2021/11/10 02:19:19;;;;;;;1999.90;999.90;;;4.30;99.90;;;;;;5051612;28;20410;-71
2021/11/10 02:21:49;;;;;;;1999.90;999.90;;;4.20;99.90;;;;;;5051344;28;20406;-70
2021/11/10 02:24:16;;;;;;;1999.90;999.90;;;4.10;99.90;;;;;;5051475;28;20168;-71
2021/11/10 02:26:43;;;;;;;1999.90;999.90;;;4.20;99.90;;;;;;5051244;28;20457;-71
2021/11/10 02:29:11;;;;;;;1999.90;999.90;;;4.10;99.90;;;;;;5051443;28;20233;-71
2021/11/10 02:31:37;;;;;;;1999.90;999.90;;;4.10;99.90;;;;;;5051317;28;20164;-71
2021/11/10 02:34:04;;;;;;;1999.90;999.90;;;4.10;99.90;;;;;;5051283;28;20459;-71
2021/11/10 02:36:31;;;;;;;1999.90;999.90;;;4.00;99.90;;;;;;5051932;28;20749;-71
2021/11/10 02:39:00;;;;;;;1999.90;999.90;;;4.10;99.90;;;;;;5055178;28;20444;-71
2021/11/10 02:41:27;;;;;;;1999.90;999.90;;;4.10;99.90;;;;;;5054963;28;20164;-71
2021/11/10 02:43:53;;;;;;;1999.90;999.90;;;4.00;99.90;;;;;;5055699;28;20199;-71
2021/11/10 02:46:19;;;;;;;1999.90;999.90;;;4.00;99.90;;;;;;5055742;28;20426;-70
2021/11/10 02:48:45;;;;;;;1999.90;999.90;;;4.00;99.90;;;;;;5055659;28;20184;-70
2021/11/10 02:51:10;;;;;;;1999.90;999.90;;;3.90;99.90;;;;;;5054078;28;20472;-71
2021/11/10 02:53:36;;;;;;;1999.90;999.90;;;3.90;99.90;;;;;;5054177;28;20267;-71
2021/11/10 02:56:02;;;;;;;1999.90;999.90;;;3.80;99.90;;;;;;5054660;28;20192;-71
2021/11/10 02:58:32;;;;;;;1999.90;999.90;;;3.80;99.90;;;;;;5054740;28;20570;-71
2021/11/10 03:00:58;;;;;;;1999.90;999.90;;;3.80;99.90;;;;;;5054656;28;20739;-71
2021/11/10 03:03:24;;;;;;;1999.90;999.90;;;3.70;99.90;;;;;;5054475;28;20170;-71
2021/11/10 03:05:49;;;;;;;1999.90;999.90;;;3.70;99.90;;;;;;5054419;28;20175;-71
2021/11/10 03:08:19;;;;;;;1999.90;999.90;;;3.70;99.90;;;;;;5054537;28;20207;-71
2021/11/10 03:10:46;;;;;;;1999.90;999.90;;;3.60;99.90;;;;;;5054696;28;20245;-71
2021/11/10 03:13:13;;;;;;;1999.90;999.90;;;3.60;99.90;;;;;;5054174;28;20172;-71
2021/11/10 03:15:40;;;;;;;1999.90;999.90;;;3.60;99.90;;;;;;5054243;28;20203;-71
2021/11/10 03:18:06;;;;;;;1999.90;999.90;;;3.60;99.90;;;;;;5054258;28;20422;-71
2021/11/10 03:20:32;;;;;;;1999.90;999.90;;;3.60;99.90;;;;;;5054288;28;20255;-71
2021/11/10 03:22:59;;;;;;;1999.90;999.90;;;3.60;99.90;;;;;;5053984;28;20186;-71
2021/11/10 03:25:25;;;;;;;1999.90;999.90;;;3.70;99.90;;;;;;5054118;28;20493;-71
2021/11/10 03:27:51;;;;;;;1999.90;999.90;;;3.60;99.90;;;;;;5053908;28;20218;-71
2021/11/10 03:30:19;;;;;;;1999.90;999.90;;;3.60;99.90;;;;;;5054022;28;20540;-71
2021/11/10 03:32:45;;;;;;;1999.90;999.90;;;3.60;99.90;;;;;;5053860;28;20298;-71
2021/11/10 03:35:12;;;;;;;1999.90;999.90;;;3.60;99.90;;;;;;5053907;28;20219;-71
2021/11/10 03:37:38;;;;;;;1999.90;999.90;;;3.70;99.90;;;;;;5053831;28;20191;-71
2021/11/10 03:40:05;;;;;;;1999.90;999.90;;;3.70;99.90;;;;;;5053848;28;20188;-71
2021/11/10 03:42:31;;;;;;;1999.90;999.90;;;3.60;99.90;;;;;;5053533;28;20168;-71
2021/11/10 03:44:57;;;;;;;1999.90;999.90;;;3.50;99.90;;;;;;5053766;28;20168;-71
2021/11/10 03:47:22;;;;;;;1999.90;999.90;;;3.50;99.90;;;;;;5053717;28;20418;-71
2021/11/10 03:49:48;;;;;;;1999.90;999.90;;;3.60;99.90;;;;;;5052696;28;20230;-71
2021/11/10 03:52:15;;;;;;;1999.90;999.90;;;3.60;99.90;;;;;;5053536;28;20664;-71
2021/11/10 03:54:41;;;;;;;1999.90;999.90;;;3.60;99.90;;;;;;5053489;28;20194;-71
2021/11/10 03:57:08;;;;;;;1999.90;999.90;;;3.60;99.90;;;;;;5053405;28;20465;-71
2021/11/10 03:59:34;;;;;;;1999.90;999.90;;;3.60;99.90;;;;;;5053521;28;20167;-71
2021/11/10 04:02:00;;;;;;;1999.90;999.90;;;3.60;99.90;;;;;;5053223;28;20167;-71
2021/11/10 04:04:25;;;;;;;1999.90;999.90;;;3.50;99.90;;;;;;5053482;28;20255;-71
2021/11/10 04:06:51;;;;;;;1999.90;999.90;;;3.50;99.90;;;;;;5053280;28;20195;-71
2021/11/10 04:09:17;;;;;;;1999.90;999.90;;;3.50;99.90;;;;;;5053280;28;20281;-71
2021/11/10 04:11:42;;;;;;;1999.90;999.90;;;3.50;99.90;;;;;;5053234;28;20196;-71
2021/11/10 04:14:08;;;;;;;1999.90;999.90;;;3.50;99.90;;;;;;5053452;28;20175;-71
2021/11/10 04:16:34;;;;;;;1999.90;999.90;;;3.40;99.90;;;;;;5053163;28;20671;-71
2021/11/10 04:18:59;;;;;;;1999.90;999.90;;;3.40;99.90;;;;;;5053093;28;20648;-71
2021/11/10 04:21:26;;;;;;;1999.90;999.90;;;3.30;99.90;;;;;;5052993;28;20160;-71
2021/11/10 04:23:53;;;;;;;1999.90;999.90;;;3.30;99.90;;;;;;5053143;28;20160;-71
2021/11/10 04:26:21;;;;;;;1999.90;999.90;;;3.30;99.90;;;;;;5095538;22;20211;-70
2021/11/10 04:28:48;;;;;;;1999.90;999.90;;;3.30;99.90;;;;;;5052266;28;20644;-71
2021/11/10 04:31:14;;;;;;;1999.90;999.90;;;3.30;99.90;;;;;;5052689;28;20225;-70
2021/11/10 04:33:40;;;;;;;1999.90;999.90;;;3.20;99.90;;;;;;5052852;28;20172;-69
2021/11/10 04:36:06;;;;;;;1999.90;999.90;;;3.20;99.90;;;;;;5052767;28;20544;-70
2021/11/10 04:38:32;;;;;;;1999.90;999.90;;;3.20;99.90;;;;;;5052597;28;20593;-70
2021/11/10 04:40:58;;;;;;;1999.90;999.90;;;3.20;99.90;;;;;;5052703;28;20164;-69
2021/11/10 04:43:24;;;;;;;1999.90;999.90;;;3.20;99.90;;;;;;5052451;28;20656;-69
2021/11/10 04:45:57;;;;;;;1999.90;999.90;;;3.20;99.90;;;;;;5052758;28;20402;-69
2021/11/10 04:48:23;;;;;;;1999.90;999.90;;;3.20;99.90;;;;;;5052819;28;20564;-70
2021/11/10 04:50:48;;;;;;;1999.90;999.90;;;3.20;99.90;;;;;;5052724;28;20525;-70
2021/11/10 04:53:14;;;;;;;1999.90;999.90;;;3.20;99.90;;;;;;5052180;28;20178;-69
2021/11/10 04:55:41;;;;;;;1999.90;999.90;;;3.20;99.90;;;;;;5052388;28;20753;-69
2021/11/10 04:58:07;;;;;;;1999.90;999.90;;;3.20;99.90;;;;;;5052337;28;20191;-70
2021/11/10 05:00:32;;;;;;;1999.90;999.90;;;3.20;99.90;;;;;;5052142;28;20190;-70
2021/11/10 05:02:58;;;;;;;1999.90;999.90;;;3.10;99.90;;;;;;5052069;28;20171;-69
2021/11/10 05:05:24;;;;;;;1999.90;999.90;;;3.10;99.90;;;;;;5052268;28;20210;-70
2021/11/10 05:07:50;;;;;;;1999.90;999.90;;;3.10;99.90;;;;;;5052121;28;20241;-70
2021/11/10 05:10:17;;;;;;;1999.90;999.90;;;3.00;99.90;;;;;;5052186;28;20410;-70
2021/11/10 05:12:43;;;;;;;1999.90;999.90;;;3.00;99.90;;;;;;5051909;28;20214;-70
2021/11/10 05:15:09;;;;;;;1999.90;999.90;;;3.00;99.90;;;;;;5052030;28;20195;-70
2021/11/10 05:17:35;;;;;;;1999.90;999.90;;;3.00;99.90;;;;;;5052061;28;20427;-69
2021/11/10 05:20:00;;;;;;;1999.90;999.90;;;2.90;99.90;;;;;;5052076;28;20168;-70
2021/11/10 05:22:26;;;;;;;1999.90;999.90;;;2.80;99.90;;;;;;5051656;28;20217;-70
2021/11/10 05:24:51;;;;;;;1999.90;999.90;;;2.90;99.90;;;;;;5050771;28;20168;-70
2021/11/10 05:27:17;;;;;;;1999.90;999.90;;;2.90;99.90;;;;;;5051762;28;20203;-70
2021/11/10 05:29:43;;;;;;;1999.90;999.90;;;2.80;99.90;;;;;;5051983;28;20250;-70
2021/11/10 05:32:10;;;;;;;1999.90;999.90;;;2.80;99.90;;;;;;5051795;28;20242;-70
2021/11/10 05:34:35;;;;;;;1999.90;999.90;;;2.80;99.90;;;;;;5052218;28;20698;-69
2021/11/10 05:37:01;;;;;;;1999.90;999.90;;;2.80;99.90;;;;;;5051622;28;20203;-70
2021/11/10 05:39:27;;;;;;;1999.90;999.90;;;2.60;99.90;;;;;;5051938;28;20433;-69
2021/11/10 05:41:53;;;;;;;1999.90;999.90;;;2.50;99.90;;;;;;5051615;28;20655;-70
2021/11/10 05:44:18;;;;;;;1999.90;999.90;;;2.60;99.90;;;;;;5051815;28;20168;-70
2021/11/10 05:46:44;;;;;;;1999.90;999.90;;;2.60;99.90;;;;;;5051731;28;20195;-70
2021/11/10 05:49:10;;;;;;;1999.90;999.90;;;2.60;99.90;;;;;;5051787;28;20548;-70
2021/11/10 05:51:36;;;;;;;1999.90;999.90;;;2.60;99.90;;;;;;5051457;28;20214;-70
2021/11/10 05:54:03;;;;;;;1999.90;999.90;;;2.70;99.90;;;;;;5051632;28;20175;-69
2021/11/10 05:56:32;;;;;;;1999.90;999.90;;;2.60;99.90;;;;;;5051596;28;20196;-69
2021/11/10 05:58:59;;;;;;;1999.90;999.90;;;2.60;99.90;;;;;;5051607;28;20176;-70
2021/11/10 06:01:25;;;;;;;1999.90;999.90;;;2.60;99.90;;;;;;5051468;28;20172;-70
2021/11/10 06:03:52;;;;;;;1999.90;999.90;;;2.60;99.90;;;;;;5051646;28;20250;-70
2021/11/10 06:06:18;;;;;;;1999.90;999.90;;;2.60;99.90;;;;;;5051476;28;20187;-70
2021/11/10 06:08:44;;;;;;;1999.90;999.90;;;2.60;99.90;;;;;;5051592;28;20518;-70
2021/11/10 06:11:10;;;;;;;1999.90;999.90;;;2.50;99.90;;;;;;5051582;28;20168;-69
2021/11/10 06:13:37;;;;;;;1999.90;999.90;;;2.30;99.90;;;;;;5055184;28;20721;-69
2021/11/10 06:16:04;;;;;;;1999.90;999.90;;;2.30;99.90;;;;;;5055303;28;20252;-70
2021/11/10 06:18:30;;;;;;;1999.90;999.90;;;2.20;99.90;;;;;;5055346;28;20270;-69
2021/11/10 06:20:57;;;;;;;1999.90;999.90;;;2.20;99.90;;;;;;5055352;28;20266;-69
2021/11/10 06:23:22;;;;;;;1999.90;999.90;;;2.10;99.90;;;;;;5055065;28;20195;-70
2021/11/10 06:25:48;;;;;;;1999.90;999.90;;;2.10;99.90;;;;;;5055223;28;20225;-70
2021/11/10 06:28:14;;;;;;;1999.90;999.90;;;2.00;99.90;;;;;;5055053;28;20208;-69
2021/11/10 06:30:41;;;;;;;1999.90;999.90;;;2.00;99.90;;;;;;5055204;28;20801;-70
2021/11/10 06:33:06;;;;;;;1999.90;999.90;;;2.00;99.90;;;;;;5054817;28;20203;-70
2021/11/10 06:35:32;;;;;;;1999.90;999.90;;;2.10;99.90;;;;;;5054980;28;20230;-69
2021/11/10 06:37:58;;;;;;;1999.90;999.90;;;2.00;99.90;;;;;;5055025;28;20187;-69
2021/11/10 06:40:24;;;;;;;1999.90;999.90;;;2.10;99.90;;;;;;5055057;28;20160;-70
2021/11/10 06:42:50;;;;;;;1999.90;999.90;;;2.10;99.90;;;;;;5054787;28;20175;-69
2021/11/10 06:45:16;;;;;;;1999.90;999.90;;;2.20;99.90;;;;;;5054801;28;20418;-69
2021/11/10 06:47:41;;;;;;;1999.90;999.90;;;2.20;99.90;;;;;;5054794;28;20274;-69
2021/11/10 06:50:08;;;;;;;1999.90;999.90;;;2.30;99.90;;;;;;5054814;28;20236;-70
2021/11/10 06:52:33;;;;;;;1999.90;999.90;;;2.30;99.90;;;;;;5054575;28;20190;-70
2021/11/10 06:54:59;;;;;;;1999.90;999.90;;;2.20;99.90;;;;;;5054681;28;20641;-70
2021/11/10 06:57:25;;;;;;;1999.90;999.90;;;2.20;99.90;;;;;;5054575;28;20707;-70
2021/11/10 06:59:51;;;;;;;1999.90;999.90;;;2.20;99.90;;;;;;5054661;28;20164;-70
2021/11/10 07:02:17;;;;;;;1999.90;999.90;;;2.10;99.90;;;;;;5054370;28;20925;-69
2021/11/10 07:04:43;;;;;;;1999.90;999.90;;;2.00;99.90;;;;;;5054517;28;20493;-70
2021/11/10 07:07:09;;;;;;;1999.90;999.90;;;2.10;99.90;;;;;;5054481;28;20287;-70
2021/11/10 07:09:35;;;;;;;1999.90;999.90;;;2.10;99.90;;;;;;5054542;28;20167;-70
2021/11/10 07:12:01;;;;;;;1999.90;999.90;;;2.10;99.90;;;;;;5054198;28;20179;-69
2021/11/10 07:14:27;;;;;;;1999.90;999.90;;;2.30;99.90;;;;;;5054417;28;20171;-69
2021/11/10 07:16:54;;;;;;;1999.90;999.90;;;2.40;99.90;;;;;;5054266;28;20454;-69
2021/11/10 07:19:19;;;;;;;1999.90;999.90;;;2.40;99.90;;;;;;5054237;28;20398;-69
2021/11/10 07:21:45;;;;;;;1999.90;999.90;;;2.40;99.90;;;;;;5053971;28;20715;-70
2021/11/10 07:24:11;;;;;;;1999.90;999.90;;;2.40;99.90;;;;;;5054154;28;20551;-69
2021/11/10 07:26:37;;;;;;;1999.90;999.90;;;2.50;99.90;;;;;;5056598;28;20199;-70
2021/11/10 07:29:03;;;;;;;1999.90;999.90;;;2.70;99.90;;;;;;5063848;28;20171;-70
2021/11/10 07:31:29;;;;;;;1999.90;999.90;;;2.80;99.90;;;;;;5064368;28;20203;-68
2021/11/10 07:33:55;;;;;;;1999.90;999.90;;;2.80;99.90;;;;;;5055561;28;20164;-70
2021/11/10 07:36:22;;;;;;;1999.90;999.90;;;2.80;99.90;;;;;;5053954;28;20230;-70
2021/11/10 07:38:48;;;;;;;1999.90;999.90;;;2.70;99.90;;;;;;5053990;28;20167;-69
2021/11/10 07:41:17;;;;;;;1999.90;999.90;;;2.70;99.90;;;;;;5053902;28;20168;-69
2021/11/10 07:43:43;;;;;;;1999.90;999.90;;;2.90;99.90;;;;;;5053630;28;20246;-70
2021/11/10 07:46:17;;;;;;;1999.90;999.90;;;2.90;99.90;;;;;;5053874;28;20254;-70
2021/11/10 07:48:44;;;;;;;1999.90;999.90;;;3.00;99.90;;;;;;5054033;28;20171;-70
2021/11/10 07:51:10;;;;;;;1999.90;999.90;;;3.10;99.90;;;;;;5053710;28;20251;-71
2021/11/10 07:53:36;;;;;;;1999.90;999.90;;;3.20;99.90;;;;;;5053421;28;20206;-70
2021/11/10 07:56:03;;;;;;;1999.90;999.90;;;3.30;99.90;;;;;;5053301;28;20200;-70
2021/11/10 07:58:29;;;;;;;1999.90;999.90;;;3.50;99.90;;;;;;5053014;28;20716;-71
2021/11/10 08:00:55;;;;;;;1999.90;999.90;;;3.50;99.90;;;;;;5053547;28;20172;-69
2021/11/10 08:03:20;;;;;;;1999.90;999.90;;;3.60;99.90;;;;;;5053288;28;20171;-69
2021/11/10 08:05:46;;;;;;;1999.90;999.90;;;3.60;99.90;;;;;;5053620;28;20176;-70
2021/11/10 08:08:12;;;;;;;1999.90;999.90;;;3.80;99.90;;;;;;5053542;28;20226;-70
2021/11/10 08:10:37;;;;;;;1999.90;999.90;;;4.00;99.90;;;;;;5053419;28;20180;-70
2021/11/10 08:13:03;;;;;;;1999.90;999.90;;;4.10;99.90;;;;;;5054119;28;20701;-70
2021/11/10 08:15:29;;;;;;;1999.90;999.90;;;4.30;99.90;;;;;;5058969;28;20503;-70
2021/11/10 08:17:55;;;;;;;1999.90;999.90;;;4.40;99.90;;;;;;5058557;28;20431;-70
2021/11/10 08:20:21;;;;;;;1999.90;999.90;;;4.60;99.90;;;;;;5059107;28;20160;-70
2021/11/10 08:22:47;;;;;;;1999.90;999.90;;;4.70;99.90;;;;;;5059465;28;20547;-70
2021/11/10 08:25:15;;;;;;;1999.90;999.90;;;4.80;99.90;;;;;;5058974;28;20402;-70
2021/11/10 08:27:41;;;;;;;1999.90;999.90;;;4.90;99.90;;;;;;5058143;28;20207;-70
2021/11/10 08:30:13;;;;;;;1999.90;999.90;;;5.00;99.90;;;;;;5058763;28;20174;-71
2021/11/10 08:32:39;;;;;;;1999.90;999.90;;;5.00;99.90;;;;;;5057240;28;20770;-67
2021/11/10 08:35:07;;;;;;;1999.90;999.90;;;5.20;99.90;;;;;;5058578;28;20497;-71
2021/11/10 08:37:33;;;;;;;1999.90;999.90;;;5.30;99.90;;;;;;5067332;28;20439;-71
2021/11/10 08:39:59;;;;;;;1999.90;999.90;;;5.50;99.90;;;;;;5065429;28;20973;-70
2021/11/10 08:42:32;;;;;;;1999.90;999.90;;;5.60;99.90;;;;;;5058506;28;20418;-70
2021/11/10 08:44:59;;;;;;;1999.90;999.90;;;5.70;99.90;;;;;;5059788;28;20479;-70
2021/11/10 08:47:25;;;;;;;1999.90;999.90;;;5.70;99.90;;;;;;5060321;28;20442;-69
2021/11/10 08:49:51;;;;;;;1999.90;999.90;;;5.80;99.90;;;;;;5057665;28;20511;-70
2021/11/10 08:52:18;;;;;;;1999.90;999.90;;;6.00;99.90;;;;;;5050775;28;20800;-70
2021/11/10 08:54:43;;;;;;;1999.90;999.90;;;6.00;99.90;;;;;;5050809;28;20250;-70
2021/11/10 08:57:09;;;;;;;1999.90;999.90;;;6.10;99.90;;;;;;5050354;28;20548;-70
2021/11/10 08:59:35;;;;;;;1999.90;999.90;;;6.20;99.90;;;;;;5050691;28;20588;-70
2021/11/10 09:02:02;;;;;;;1999.90;999.90;;;6.40;99.90;;;;;;5050589;28;20167;-70
2021/11/10 09:04:27;;;;;;;1999.90;999.90;;;6.50;99.90;;;;;;5050196;28;20168;-70
2021/11/10 09:06:53;;;;;;;1999.90;999.90;;;6.60;99.90;;;;;;5050767;28;20437;-70
2021/11/10 09:09:19;;;;;;;1999.90;999.90;;;6.70;99.90;;;;;;5050701;28;20168;-70
2021/11/10 09:11:46;;;;;;;1999.90;999.90;;;6.80;99.90;;;;;;5050015;28;20211;-70
2021/11/10 09:14:11;;;;;;;1999.90;999.90;;;6.90;99.90;;;;;;5050569;28;20168;-70
2021/11/10 09:16:37;;;;;;;1999.90;999.90;;;7.00;99.90;;;;;;5050526;28;20489;-70
2021/11/10 09:19:03;;;;;;;1999.90;999.90;;;7.10;99.90;;;;;;5050142;28;20407;-70
2021/11/10 09:21:29;;;;;;;1999.90;999.90;;;7.30;99.90;;;;;;5050453;28;20412;-70
2021/11/10 09:23:55;;;;;;;1999.90;999.90;;;7.30;99.90;;;;;;5049932;28;20600;-70
2021/11/10 09:26:21;;;;;;;1999.90;999.90;;;7.50;99.90;;;;;;5049801;28;20497;-70
2021/11/10 09:28:47;;;;;;;1999.90;999.90;;;7.80;99.90;;;;;;5050548;28;20183;-75
2021/11/10 09:31:12;;;;;;;1999.90;999.90;;;7.90;99.90;;;;;;5047653;28;20178;-71
2021/11/10 09:33:42;;;;;;;1999.90;999.90;;;8.00;99.90;;;;;;5048655;28;20171;-70
2021/11/10 09:36:11;;;;;;;1999.90;999.90;;;8.10;99.90;;;;;;5052466;28;20676;-74
2021/11/10 09:38:38;;;;;;;1999.90;999.90;;;8.40;99.90;;;;;;5058247;28;20433;-72
2021/11/10 09:41:05;;;;;;;1999.90;999.90;;;8.60;99.90;;;;;;5048663;28;20415;-74
2021/11/10 09:43:36;;;;;;;1999.90;999.90;;;8.80;99.90;;;;;;5051267;28;20444;-70
2021/11/10 09:46:06;;;;;;;1999.90;999.90;;;9.00;99.90;;;;;;5049022;28;20439;-71
2021/11/10 09:48:33;;;;;;;1999.90;999.90;;;9.20;99.90;;;;;;5057283;28;20932;-72
2021/11/10 09:50:59;;;;;;;1999.90;999.90;;;9.40;99.90;;;;;;5061340;28;20882;-72
2021/11/10 09:53:25;;;;;;;1999.90;999.90;;;9.60;99.90;;;;;;5063916;28;20403;-72
2021/11/10 09:55:54;;;;;;;1999.90;999.90;;;9.70;99.90;;;;;;5055952;28;20481;-72
2021/11/10 09:58:19;;;;;;;1999.90;999.90;;;9.70;99.90;;;;;;5055923;28;20432;-71
2021/11/10 10:00:55;;;;;;;1999.90;999.90;;;9.70;99.90;;;;;;5054010;28;20426;-72
2021/11/10 10:03:22;;;;;;;1999.90;999.90;;;9.50;99.90;;;;;;5058127;28;20646;-70
2021/11/10 10:05:49;;;;;;;1999.90;999.90;;;9.50;99.90;;;;;;5057363;28;20404;-71
2021/11/10 10:08:17;;;;;;;1999.90;999.90;;;9.40;99.90;;;;;;5054280;28;20428;-71
2021/11/10 10:10:44;;;;;;;1999.90;999.90;;;9.40;99.90;;;;;;5054666;28;20422;-71
2021/11/10 10:13:10;;;;;;;1999.90;999.90;;;9.40;99.90;;;;;;5053886;28;20448;-69
2021/11/10 10:15:37;;;;;;;1999.90;999.90;;;9.40;99.90;;;;;;5053127;28;20454;-71
2021/11/10 10:18:19;;;;;;;1999.90;999.90;;;9.60;99.90;;;;;;5053089;28;20427;-70
2021/11/10 10:20:50;;;;;;;1999.90;999.90;;;9.70;99.90;;;;;;5053803;28;20418;-70
2021/11/10 10:23:18;;;;;;;1999.90;999.90;;;9.70;99.90;;;;;;5051809;28;20396;-70
2021/11/10 10:26:00;;;;;;;1999.90;999.90;;;9.70;99.90;;;;;;5053038;28;20412;-70
2021/11/10 10:28:48;;;;;;;1999.90;999.90;;;9.90;99.90;;;;;;5053079;28;20450;-70
2021/11/10 10:31:17;;;;;;;1999.90;999.90;;;9.90;99.90;;;;;;5052964;28;20932;-69
2021/11/10 10:33:46;;;;;;;1999.90;999.90;;;10.00;99.90;;;;;;5052770;28;20404;-69
2021/11/10 10:36:19;;;;;;;1999.90;999.90;;;10.10;99.90;;;;;;5052726;28;20833;-71
2021/11/10 10:38:52;;;;;;;1999.90;999.90;;;10.30;99.90;;;;;;5052740;28;20413;-70
2021/11/10 10:41:29;;;;;;;1999.90;999.90;;;10.40;99.90;;;;;;5053228;28;20526;-69
2021/11/10 10:44:01;;;;;;;1999.90;999.90;;;10.50;99.90;;;;;;5052664;28;20421;-71
2021/11/10 10:46:29;;;;;;;1999.90;999.90;;;10.40;99.90;;;;;;5052411;28;20441;-70
2021/11/10 10:49:21;;;;;;;1999.90;999.90;;;10.40;99.90;;;;;;5052949;28;20414;-70
2021/11/10 10:51:52;;;;;;;1999.90;999.90;;;10.50;99.90;;;;;;5052850;28;20933;-70
2021/11/10 10:54:19;;;;;;;1999.90;999.90;;;10.50;99.90;;;;;;5052303;28;20407;-70
2021/11/10 10:56:59;;;;;;;1999.90;999.90;;;10.60;99.90;;;;;;5052667;28;20889;-71
2021/11/10 10:59:26;;;;;;;1999.90;999.90;;;10.60;99.90;;;;;;5052082;28;20423;-71
2021/11/10 11:01:53;;;;;;;1999.90;999.90;;;10.60;99.90;;;;;;5052293;28;20420;-71
2021/11/10 11:04:22;;;;;;;1999.90;999.90;;;10.70;99.90;;;;;;5052580;28;21199;-71
2021/11/10 11:06:48;;;;;;;1999.90;999.90;;;10.80;99.90;;;;;;5052608;28;20441;-71
2021/11/10 11:09:20;;;;;;;1999.90;999.90;;;10.90;99.90;;;;;;5052434;28;20526;-71
2021/11/10 11:12:16;;;;;;;1999.90;999.90;;;10.90;99.90;;;;;;5052732;28;20405;-71
2021/11/10 11:14:51;;;;;;;1999.90;999.90;;;10.90;99.90;;;;;;5052499;28;20921;-71
2021/11/10 11:17:37;;;;;;;1999.90;999.90;;;10.90;99.90;;;;;;5051967;28;20526;-71
2021/11/10 11:20:05;;;;;;;1999.90;999.90;;;11.10;99.90;;;;;;5052241;28;20398;-71
2021/11/10 11:22:55;;;;;;;1999.90;999.90;;;11.40;99.90;;;;;;5051554;28;20411;-71
2021/11/10 11:25:31;;;;;;;1999.90;999.90;;;11.70;99.90;;;;;;5052226;28;20406;-72
2021/11/10 11:28:05;;;;;;;1999.90;999.90;;;12.10;99.90;;;;;;5052178;28;20488;-71
2021/11/10 11:30:42;;;;;;;1999.90;999.90;;;12.30;99.90;;;;;;5051956;28;20857;-72
2021/11/10 11:33:11;;;;;;;1999.90;999.90;;;12.30;99.90;;;;;;5051952;28;21153;-72
2021/11/10 11:35:38;;;;;;;1999.90;999.90;;;12.30;99.90;;;;;;5052030;28;20464;-71
2021/11/10 11:38:10;;;;;;;1999.90;999.90;;;12.60;99.90;;;;;;5051689;28;20437;-72
2021/11/10 11:40:58;;;;;;;1999.90;999.90;;;13.30;99.90;;;;;;5051845;28;20410;-71
2021/11/10 11:43:26;;;;;;;1999.90;999.90;;;13.90;99.90;;;;;;5051233;28;20457;-72
2021/11/10 11:45:57;;;;;;;1999.90;999.90;;;14.40;99.90;;;;;;5051466;28;20503;-71
2021/11/10 11:48:25;;;;;;;1999.90;999.90;;;14.70;99.90;;;;;;5051920;28;20429;-72
2021/11/10 11:50:52;;;;;;;1999.90;999.90;;;14.90;99.90;;;;;;5051824;28;20408;-71
2021/11/10 11:53:18;;;;;;;1999.90;999.90;;;15.10;99.90;;;;;;5050947;28;20914;-72
2021/11/10 11:55:48;;;;;;;1999.90;999.90;;;15.20;99.90;;;;;;5051735;28;20447;-71
2021/11/10 11:58:21;;;;;;;1999.90;999.90;;;15.40;99.90;;;;;;5051602;28;20418;-71
2021/11/10 12:00:50;;;;;;;1999.90;999.90;;;15.80;99.90;;;;;;5051009;28;20394;-72
2021/11/10 12:03:25;;;;;;;1999.90;999.90;;;16.20;99.90;;;;;;5050737;28;20401;-72
2021/11/10 12:05:53;;;;;;;1999.90;999.90;;;16.60;99.90;;;;;;5051651;28;20925;-71
2021/11/10 12:08:41;;;;;;;1999.90;999.90;;;16.90;99.90;;;;;;5050711;28;20475;-72